createdAt,value
2019-04-10T00:00:47.589Z,15.37
2019-04-10T00:03:27.818Z,15.23
2019-04-10T00:05:49.931Z,14.73
2019-04-10T00:08:19.804Z,15.50
2019-04-10T00:10:49.633Z,15.27
2019-04-10T00:13:19.124Z,14.90
2019-04-10T00:15:48.781Z,14.87
2019-04-10T00:18:20.015Z,14.77
2019-04-10T00:20:49.552Z,15.30
2019-04-10T00:23:20.005Z,15.10
2019-04-10T00:25:49.566Z,15.37
2019-04-10T00:28:19.164Z,15.50
2019-04-10T00:30:49.385Z,15.40
2019-04-10T00:33:20.791Z,15.47
2019-04-10T00:35:50.371Z,14.47
2019-04-10T00:38:19.885Z,16.80
2019-04-10T00:40:49.957Z,14.27
2019-04-10T00:43:19.470Z,15.43
2019-04-10T00:45:49.419Z,13.40
2019-04-10T00:48:19.561Z,13.70
2019-04-10T00:50:49.133Z,14.43
2019-04-10T00:53:19.071Z,15.37
2019-04-10T00:55:48.634Z,13.50
2019-04-10T00:58:18.305Z,15.83
2019-04-10T01:00:50.120Z,15.07
2019-04-10T01:03:38.180Z,16.13
2019-04-10T01:06:08.048Z,14.10
2019-04-10T01:08:37.640Z,14.57
2019-04-10T01:11:07.231Z,15.50
2019-04-10T01:13:36.946Z,14.43
2019-04-10T01:16:07.120Z,14.03
2019-04-10T01:18:37.437Z,15.60
2019-04-10T01:21:08.289Z,17.80
2019-04-10T01:23:38.066Z,15.37
2019-04-10T01:26:07.973Z,14.00
2019-04-10T01:28:38.353Z,15.77
2019-04-10T01:31:08.072Z,16.37
2019-04-10T01:33:37.571Z,14.37
2019-04-10T01:36:07.097Z,15.13
2019-04-10T01:38:37.783Z,16.53
2019-04-10T01:41:07.728Z,16.80
2019-04-10T01:43:37.299Z,15.47
2019-04-10T01:46:06.799Z,14.77
2019-04-10T01:48:36.364Z,14.70
2019-04-10T01:51:06.719Z,13.73
2019-04-10T01:53:36.237Z,15.10
2019-04-10T01:56:10.415Z,16.73
2019-04-10T01:58:37.896Z,15.63
2019-04-10T02:01:10.160Z,14.23
2019-04-10T02:03:40.371Z,15.20
2019-04-10T02:06:11.342Z,14.63
2019-04-10T02:08:42.335Z,14.80
2019-04-10T02:11:11.841Z,14.43
2019-04-10T02:13:41.528Z,15.33
2019-04-10T02:16:11.060Z,16.00
2019-04-10T02:18:41.568Z,15.20
2019-04-10T02:21:11.596Z,15.90
2019-04-10T02:23:41.107Z,14.80
2019-04-10T02:26:13.590Z,15.23
2019-04-10T02:28:43.217Z,13.67
2019-04-10T02:31:13.126Z,14.93
2019-04-10T02:33:44.247Z,16.17
2019-04-10T02:36:13.766Z,15.90
2019-04-10T02:38:59.464Z,15.97
2019-04-10T02:41:14.657Z,16.70
2019-04-10T02:43:45.272Z,15.43
2019-04-10T02:46:15.549Z,16.43
2019-04-10T02:48:45.373Z,17.27
2019-04-10T02:51:15.497Z,16.10
2019-04-10T02:53:45.982Z,15.73
2019-04-10T02:56:15.952Z,15.33
2019-04-10T02:58:47.080Z,17.20
2019-04-10T03:01:17.493Z,14.43
2019-04-10T03:03:47.081Z,16.80
2019-04-10T03:06:16.559Z,15.10
2019-04-10T03:09:04.831Z,16.00
2019-04-10T03:11:19.580Z,14.90
2019-04-10T03:13:51.102Z,15.93
2019-04-10T03:16:21.609Z,15.20
2019-04-10T03:18:51.383Z,16.23
2019-04-10T03:21:21.056Z,15.70
2019-04-10T03:23:50.663Z,15.73
2019-04-10T03:26:20.265Z,15.50
2019-04-10T03:28:49.752Z,15.20
2019-04-10T03:31:20.160Z,14.67
2019-04-10T03:33:55.948Z,16.60
2019-04-10T03:36:27.422Z,15.73
2019-04-10T03:39:02.976Z,16.83
2019-04-10T03:41:28.251Z,16.83
2019-04-10T03:43:58.448Z,16.00
2019-04-10T03:46:28.132Z,14.60
2019-04-10T03:48:57.761Z,14.67
2019-04-10T03:51:28.420Z,14.83
2019-04-10T03:53:58.444Z,15.73
2019-04-10T03:56:28.018Z,15.87
2019-04-10T03:58:58.506Z,14.60
2019-04-10T04:01:29.058Z,15.20
2019-04-10T04:03:59.390Z,14.77
2019-04-10T04:06:28.900Z,15.23
2019-04-10T04:09:06.969Z,14.60
2019-04-10T04:11:31.404Z,13.30
2019-04-10T04:14:01.165Z,14.90
2019-04-10T04:16:31.071Z,15.57
2019-04-10T04:19:01.677Z,14.83
2019-04-10T04:21:32.049Z,15.10
2019-04-10T04:24:01.690Z,12.50
2019-04-10T04:26:31.661Z,16.70
2019-04-10T04:29:02.891Z,13.83
2019-04-10T04:31:33.252Z,13.70
2019-04-10T04:34:04.131Z,14.83
2019-04-10T04:36:33.636Z,13.33
2019-04-10T04:39:17.458Z,14.10
2019-04-10T04:41:35.919Z,14.40
2019-04-10T04:44:06.029Z,13.37
2019-04-10T04:46:38.612Z,14.30
2019-04-10T04:49:08.238Z,11.80
2019-04-10T04:51:37.784Z,12.83
2019-04-10T04:54:07.283Z,13.60
2019-04-10T04:56:38.001Z,14.20
2019-04-10T04:59:08.022Z,14.40
2019-04-10T05:01:38.401Z,12.63
2019-04-10T05:04:08.960Z,12.83
2019-04-10T05:06:39.566Z,12.73
2019-04-10T05:09:09.146Z,14.10
2019-04-10T05:11:39.680Z,12.03
2019-04-10T05:14:09.210Z,12.47
2019-04-10T05:16:39.549Z,13.03
2019-04-10T05:19:10.250Z,12.13
2019-04-10T05:21:39.809Z,12.10
2019-04-10T05:24:09.516Z,11.23
2019-04-10T05:26:38.989Z,11.07
2019-04-10T05:29:08.973Z,12.17
2019-04-10T05:31:38.578Z,11.23
2019-04-10T05:34:08.080Z,13.17
2019-04-10T05:36:37.762Z,11.83
2019-04-10T05:39:08.501Z,12.60
2019-04-10T05:41:38.150Z,10.60
2019-04-10T05:44:09.522Z,10.50
2019-04-10T05:46:39.053Z,10.07
2019-04-10T05:49:08.737Z,11.40
2019-04-10T05:51:38.312Z,10.90
2019-04-10T05:54:08.879Z,10.23
2019-04-10T05:56:38.508Z,9.97
2019-04-10T05:59:09.807Z,10.83
2019-04-10T06:01:41.253Z,9.77
2019-04-10T06:04:11.338Z,9.93
2019-04-10T06:06:40.986Z,10.03
2019-04-10T06:09:10.559Z,9.40
2019-04-10T06:11:42.881Z,10.47
2019-04-10T06:14:11.425Z,9.60
2019-04-10T06:16:40.930Z,10.20
2019-04-10T06:19:11.391Z,9.10
2019-04-10T06:21:41.013Z,9.80
2019-04-10T06:24:10.523Z,9.20
2019-04-10T06:26:40.017Z,9.70
2019-04-10T06:29:10.694Z,9.80
2019-04-10T06:31:40.978Z,8.70
2019-04-10T06:34:11.717Z,9.00
2019-04-10T06:36:41.828Z,8.70
2019-04-10T06:39:11.325Z,9.33
2019-04-10T06:41:41.102Z,8.37
2019-04-10T06:44:11.825Z,8.20
2019-04-10T06:46:41.799Z,9.60
2019-04-10T06:49:12.277Z,9.73
2019-04-10T06:51:42.821Z,8.20
2019-04-10T06:54:12.931Z,10.13
2019-04-10T06:56:43.019Z,9.63
2019-04-10T06:59:14.167Z,10.37
2019-04-10T07:01:48.800Z,9.10
2019-04-10T07:04:21.016Z,8.43
2019-04-10T07:06:58.042Z,9.90
2019-04-10T07:09:26.138Z,9.87
2019-04-10T07:11:58.253Z,9.93
2019-04-10T07:14:26.673Z,9.43
2019-04-10T07:17:00.669Z,9.97
2019-04-10T07:19:28.251Z,9.17
2019-04-10T07:22:00.312Z,8.97
2019-04-10T07:24:29.271Z,10.20
2019-04-10T07:27:03.255Z,9.50
2019-04-10T07:29:30.866Z,9.87
2019-04-10T07:32:00.679Z,9.67
2019-04-10T07:34:32.026Z,9.40
2019-04-10T07:37:02.261Z,8.87
2019-04-10T07:39:33.532Z,9.40
2019-04-10T07:42:04.156Z,10.10
2019-04-10T07:44:33.741Z,9.63
2019-04-10T07:47:03.337Z,9.10
2019-04-10T07:49:33.010Z,9.80
2019-04-10T07:52:03.629Z,9.90
2019-04-10T07:54:33.447Z,9.73
2019-04-10T07:57:02.947Z,10.30
2019-04-10T07:59:35.639Z,9.63
2019-04-10T08:02:07.203Z,8.57
2019-04-10T08:04:37.364Z,10.40
2019-04-10T08:07:07.280Z,9.50
2019-04-10T08:09:37.848Z,11.37
2019-04-10T08:12:09.245Z,10.53
2019-04-10T08:14:39.969Z,10.60
2019-04-10T08:17:10.052Z,11.03
2019-04-10T08:19:39.573Z,10.63
2019-04-10T08:22:10.188Z,12.03
2019-04-10T08:24:40.552Z,11.53
2019-04-10T08:27:10.395Z,12.07
2019-04-10T08:29:40.878Z,11.70
2019-04-10T08:32:12.459Z,11.67
2019-04-10T08:34:42.178Z,11.47
2019-04-10T08:37:12.697Z,12.00
2019-04-10T08:39:46.015Z,12.30
2019-04-10T08:42:14.739Z,11.90
2019-04-10T08:44:44.541Z,12.40
2019-04-10T08:47:15.215Z,12.93
2019-04-10T08:49:45.309Z,12.63
2019-04-10T08:52:16.548Z,13.27
2019-04-10T08:54:46.202Z,13.30
2019-04-10T08:57:15.697Z,13.80
2019-04-10T08:59:46.877Z,13.00
2019-04-10T09:02:17.912Z,14.43
2019-04-10T09:04:47.506Z,13.60
2019-04-10T09:07:17.988Z,14.83
2019-04-10T09:09:47.991Z,13.60
2019-04-10T09:12:17.790Z,13.97
2019-04-10T09:14:47.600Z,15.03
2019-04-10T09:17:17.428Z,14.60
2019-04-10T09:19:47.055Z,13.63
2019-04-10T09:22:16.574Z,14.13
2019-04-10T09:24:46.704Z,14.73
2019-04-10T09:27:17.175Z,14.60
2019-04-10T09:29:46.717Z,14.77
2019-04-10T09:32:16.217Z,16.60
2019-04-10T09:34:46.778Z,16.23
2019-04-10T09:37:18.095Z,15.33
2019-04-10T09:39:48.509Z,16.20
2019-04-10T09:42:19.403Z,15.30
2019-04-10T09:44:49.037Z,16.37
2019-04-10T09:47:18.538Z,15.17
2019-04-10T09:49:49.207Z,16.40
2019-04-10T09:52:18.997Z,16.77
2019-04-10T09:54:48.931Z,16.87
2019-04-10T09:57:18.472Z,14.80
2019-04-10T09:59:48.952Z,14.83
2019-04-10T10:02:19.556Z,16.23
2019-04-10T10:04:50.436Z,16.40
2019-04-10T10:07:20.709Z,15.77
2019-04-10T10:09:51.326Z,15.33
2019-04-10T10:12:21.032Z,16.53
2019-04-10T10:14:50.545Z,14.80
2019-04-10T10:17:22.355Z,17.07
2019-04-10T10:19:53.793Z,16.47
2019-04-10T10:22:23.497Z,15.90
2019-04-10T10:24:53.120Z,15.33
2019-04-10T10:27:23.380Z,16.20
2019-04-10T10:29:54.900Z,15.50
2019-04-10T10:32:24.714Z,14.77
2019-04-10T10:34:54.585Z,16.93
2019-04-10T10:37:24.229Z,15.43
2019-04-10T10:39:54.821Z,16.50
2019-04-10T10:42:24.463Z,15.23
2019-04-10T10:44:54.406Z,14.67
2019-04-10T10:47:24.146Z,16.00
2019-04-10T10:49:54.838Z,14.70
2019-04-10T10:52:24.378Z,16.00
2019-04-10T10:54:53.890Z,14.03
2019-04-10T10:57:24.774Z,14.30
2019-04-10T10:59:54.365Z,15.50
2019-04-10T11:02:25.473Z,15.97
2019-04-10T11:04:55.827Z,16.20
2019-04-10T11:07:26.942Z,14.77
2019-04-10T11:09:56.907Z,14.67
2019-04-10T11:12:26.599Z,15.93
2019-04-10T11:14:56.312Z,14.17
2019-04-10T11:17:25.846Z,15.53
2019-04-10T11:19:55.899Z,14.90
2019-04-10T11:22:26.510Z,14.10
2019-04-10T11:24:56.094Z,14.10
2019-04-10T11:27:25.598Z,13.00
2019-04-10T11:29:55.166Z,14.00
2019-04-10T11:32:26.393Z,13.40
2019-04-10T11:34:56.876Z,14.00
2019-04-10T11:37:36.648Z,13.70
2019-04-10T11:39:58.620Z,12.63
2019-04-10T11:42:29.045Z,12.37
2019-04-10T11:44:59.369Z,12.53
2019-04-10T11:47:29.216Z,13.80
2019-04-10T11:50:00.975Z,14.30
2019-04-10T11:52:36.620Z,12.70
2019-04-10T11:55:10.571Z,13.30
2019-04-10T11:57:33.085Z,12.47
2019-04-10T12:00:06.153Z,13.67
2019-04-10T12:02:34.643Z,13.00
2019-04-10T12:05:09.549Z,11.70
2019-04-10T12:08:04.760Z,12.50
2019-04-10T12:12:39.692Z,13.10
2019-04-10T12:15:10.191Z,13.47
2019-04-10T12:17:40.198Z,13.07
2019-04-10T12:20:11.121Z,12.43
2019-04-10T12:22:41.793Z,12.63
2019-04-10T12:25:12.402Z,12.77
2019-04-10T12:27:42.092Z,13.10
2019-04-10T12:30:13.226Z,12.27
2019-04-10T12:32:43.120Z,13.10
2019-04-10T12:35:13.816Z,13.97
2019-04-10T12:37:43.493Z,12.33
2019-04-10T12:40:13.934Z,11.50
2019-04-10T12:42:44.519Z,13.00
2019-04-10T12:45:15.705Z,11.80
2019-04-10T12:47:46.029Z,12.63
2019-04-10T12:50:16.267Z,12.23
2019-04-10T12:52:47.789Z,12.90
2019-04-10T12:55:17.236Z,13.40
2019-04-10T12:57:47.607Z,12.50
2019-04-10T13:00:20.041Z,11.57
2019-04-10T13:02:50.408Z,12.50
2019-04-10T13:05:20.957Z,12.43
2019-04-10T13:07:50.553Z,12.30
2019-04-10T13:10:20.405Z,12.57
2019-04-10T13:12:49.958Z,12.70
2019-04-10T13:15:19.468Z,11.90
2019-04-10T13:17:49.135Z,12.23
2019-04-10T13:20:19.783Z,11.77
2019-04-10T13:22:50.563Z,12.47
2019-04-10T13:25:20.250Z,12.00
2019-04-10T13:27:50.793Z,11.10
2019-04-10T13:30:20.724Z,12.33
2019-04-10T13:32:50.243Z,12.50
2019-04-10T13:35:19.940Z,12.50
2019-04-10T13:37:49.459Z,12.60
2019-04-10T13:40:19.698Z,12.07
2019-04-10T13:42:49.503Z,11.23
2019-04-10T13:45:20.060Z,12.33
2019-04-10T13:47:51.201Z,12.23
2019-04-10T13:50:20.832Z,12.37
2019-04-10T13:52:52.631Z,11.70
2019-04-10T13:55:24.197Z,12.60
2019-04-10T13:57:54.972Z,12.13
2019-04-10T14:00:40.445Z,12.43
2019-04-10T14:03:10.253Z,12.60
2019-04-10T14:05:41.058Z,11.40
2019-04-10T14:08:10.757Z,11.80
2019-04-10T14:10:41.810Z,12.00
2019-04-10T14:13:11.636Z,11.23
2019-04-10T14:15:42.225Z,12.50
2019-04-10T14:18:12.311Z,12.10
2019-04-10T14:20:41.915Z,11.70
2019-04-10T14:23:13.106Z,12.40
2019-04-10T14:25:44.254Z,11.27
2019-04-10T14:28:13.897Z,12.20
2019-04-10T14:30:45.371Z,11.20
2019-04-10T14:33:15.108Z,12.00
2019-04-10T14:35:44.651Z,10.90
2019-04-10T14:38:14.917Z,10.10
2019-04-10T14:40:45.247Z,10.10
2019-04-10T14:43:16.727Z,10.57
2019-04-10T14:45:46.630Z,10.80
2019-04-10T14:48:18.303Z,10.40
2019-04-10T14:50:47.824Z,9.40
2019-04-10T14:53:17.335Z,9.73
2019-04-10T14:55:46.830Z,11.03
2019-04-10T14:58:22.737Z,10.43
2019-04-10T15:00:49.456Z,10.53
2019-04-10T15:03:22.356Z,10.47
2019-04-10T15:05:54.487Z,10.13
2019-04-10T15:08:23.816Z,10.63
2019-04-10T15:10:53.398Z,10.13
2019-04-10T15:13:24.370Z,10.50
2019-04-10T15:15:54.306Z,10.93
2019-04-10T15:18:23.802Z,10.70
2019-04-10T15:20:54.285Z,10.20
2019-04-10T15:23:23.907Z,10.60
2019-04-10T15:25:53.471Z,11.07
2019-04-10T15:28:23.271Z,10.57
2019-04-10T15:30:52.979Z,10.67
2019-04-10T15:33:22.569Z,11.20
2019-04-10T15:35:53.313Z,10.57
2019-04-10T15:38:24.052Z,10.30
2019-04-10T15:40:54.596Z,10.40
2019-04-10T15:43:25.413Z,10.33
2019-04-10T15:45:56.704Z,9.97
2019-04-10T15:48:27.185Z,9.43
2019-04-10T15:50:57.967Z,9.97
2019-04-10T15:53:28.536Z,11.07
2019-04-10T15:55:58.195Z,10.33
2019-04-10T15:58:28.281Z,11.47
2019-04-10T16:00:59.366Z,10.73
2019-04-10T16:03:30.246Z,11.87
2019-04-10T16:06:02.306Z,10.47
2019-04-10T16:08:32.402Z,10.97
2019-04-10T16:11:12.406Z,11.17
2019-04-10T16:13:44.369Z,10.83
2019-04-10T16:16:15.722Z,11.80
2019-04-10T16:18:46.914Z,10.90
2019-04-10T16:21:16.844Z,10.83
2019-04-10T16:23:56.592Z,11.77
2019-04-10T16:26:27.172Z,10.40
2019-04-10T16:28:57.780Z,10.83
2019-04-10T16:31:27.677Z,11.60
2019-04-10T16:33:57.271Z,10.70
2019-04-10T16:36:27.830Z,11.30
2019-04-10T16:38:58.553Z,10.40
2019-04-10T16:41:29.926Z,10.50
2019-04-10T16:44:00.532Z,10.77
2019-04-10T16:46:30.431Z,9.97
2019-04-10T16:49:00.278Z,9.97
2019-04-10T16:51:29.842Z,10.83
2019-04-10T16:54:00.154Z,9.60
2019-04-10T16:56:29.830Z,10.17
2019-04-10T16:59:00.393Z,10.83
2019-04-10T17:01:30.956Z,10.20
2019-04-10T17:04:00.848Z,8.80
2019-04-10T17:06:30.598Z,9.13
2019-04-10T17:09:02.804Z,9.70
2019-04-10T17:11:33.709Z,8.90
2019-04-10T17:14:05.187Z,9.00
2019-04-10T17:16:35.676Z,9.00
2019-04-10T17:19:05.627Z,9.20
2019-04-10T17:21:36.261Z,9.57
2019-04-10T17:24:07.088Z,8.60
2019-04-10T17:26:39.109Z,9.63
2019-04-10T17:29:09.197Z,10.10
2019-04-10T17:31:40.435Z,9.60
2019-04-10T17:34:10.358Z,10.00
2019-04-10T17:36:40.988Z,9.60
2019-04-10T17:39:13.275Z,9.20
2019-04-10T17:41:43.883Z,8.57
2019-04-10T17:44:13.798Z,8.80
2019-04-10T17:46:43.661Z,7.87
2019-04-10T17:49:13.222Z,9.70
2019-04-10T17:51:43.890Z,8.93
2019-04-10T17:54:13.809Z,8.50
2019-04-10T17:56:44.405Z,8.30
2019-04-10T17:59:14.597Z,8.83
2019-04-10T18:01:45.190Z,7.70
2019-04-10T18:04:16.507Z,8.47
2019-04-10T18:06:47.328Z,7.53
2019-04-10T18:09:18.577Z,8.33
2019-04-10T18:11:48.057Z,8.77
2019-04-10T18:14:19.450Z,8.17
2019-04-10T18:16:49.954Z,8.00
2019-04-10T18:19:21.210Z,8.40
2019-04-10T18:21:50.995Z,8.83
2019-04-10T18:24:20.488Z,8.30
2019-04-10T18:26:52.316Z,8.17
2019-04-10T18:29:21.242Z,8.57
2019-04-10T18:31:52.066Z,8.50
2019-04-10T18:34:21.626Z,9.17
2019-04-10T18:36:54.454Z,9.80
2019-04-10T18:39:26.084Z,8.87
2019-04-10T18:41:59.043Z,9.33
2019-04-10T18:44:29.179Z,8.50
2019-04-10T18:47:00.468Z,9.17
2019-04-10T18:49:31.671Z,10.50
2019-04-10T18:52:03.315Z,10.30
2019-04-10T18:54:34.006Z,10.57
2019-04-10T18:57:05.367Z,9.63
2019-04-10T18:59:37.851Z,12.00
2019-04-10T19:02:13.841Z,10.13
2019-04-10T19:04:47.359Z,8.70
2019-04-10T19:07:17.894Z,9.80
2019-04-10T19:09:49.052Z,11.30
2019-04-10T19:12:19.339Z,12.00
2019-04-10T19:14:50.743Z,11.63
2019-04-10T19:17:22.465Z,10.37
2019-04-10T19:19:52.467Z,9.60
2019-04-10T19:22:24.314Z,9.27
2019-04-10T19:24:54.460Z,9.70
2019-04-10T19:27:25.226Z,9.80
2019-04-10T19:29:56.962Z,9.57
2019-04-10T19:32:31.329Z,10.50
2019-04-10T19:35:02.538Z,10.87
2019-04-10T19:37:32.546Z,10.20
2019-04-10T19:40:07.008Z,10.67
2019-04-10T19:42:39.845Z,9.80
2019-04-10T19:45:11.976Z,9.57
2019-04-10T19:47:44.332Z,10.13
2019-04-10T19:50:14.604Z,10.80
2019-04-10T19:52:44.673Z,10.20
2019-04-10T19:55:16.007Z,10.17
2019-04-10T19:57:46.331Z,11.10
2019-04-10T20:00:18.217Z,14.57
2019-04-10T20:02:49.653Z,14.67
2019-04-10T20:05:21.156Z,13.20
2019-04-10T20:07:51.388Z,12.60
2019-04-10T20:10:21.365Z,11.87
2019-04-10T20:12:52.937Z,13.60
2019-04-10T20:15:22.723Z,12.87
2019-04-10T20:17:52.508Z,13.10
2019-04-10T20:20:22.098Z,12.30
2019-04-10T20:22:53.490Z,11.43
2019-04-10T20:25:24.044Z,10.77
2019-04-10T20:27:53.587Z,11.63
2019-04-10T20:30:25.835Z,10.87
2019-04-10T20:32:56.475Z,12.67
2019-04-10T20:35:26.555Z,11.00
2019-04-10T20:37:56.178Z,12.63
2019-04-10T20:40:25.840Z,14.03
2019-04-10T20:42:56.296Z,15.83
2019-04-10T20:45:27.127Z,16.10
2019-04-10T20:47:58.132Z,16.10
2019-04-10T20:50:27.930Z,14.73
2019-04-10T20:52:57.814Z,13.30
2019-04-10T20:55:27.964Z,12.93
2019-04-10T20:57:57.516Z,12.33
2019-04-10T21:00:28.730Z,10.43
2019-04-10T21:02:58.560Z,11.67
2019-04-10T21:05:28.306Z,11.87
2019-04-10T21:07:58.024Z,10.93
2019-04-10T21:10:27.516Z,11.53
2019-04-10T21:12:58.381Z,10.80
2019-04-10T21:15:28.234Z,13.20
2019-04-10T21:17:57.726Z,12.00
2019-04-10T21:20:27.306Z,11.90
2019-04-10T21:22:57.698Z,11.27
2019-04-10T21:25:27.467Z,11.60
2019-04-10T21:27:57.824Z,12.50
2019-04-10T21:30:32.134Z,10.20
2019-04-10T21:33:14.921Z,11.20
2019-04-10T21:35:45.567Z,9.73
2019-04-10T21:38:15.204Z,11.10
2019-04-10T21:40:45.302Z,9.60
2019-04-10T21:43:14.877Z,8.30
2019-04-10T21:45:45.500Z,9.20
2019-04-10T21:48:15.138Z,8.87
2019-04-10T21:50:44.658Z,8.10
2019-04-10T21:53:15.104Z,8.87
2019-04-10T21:55:45.757Z,8.80
2019-04-10T21:58:16.304Z,9.07
2019-04-10T22:00:57.044Z,8.73
2019-04-10T22:03:27.535Z,9.87
2019-04-10T22:05:59.413Z,9.50
2019-04-10T22:08:31.566Z,9.03
2019-04-10T22:11:01.156Z,9.83
2019-04-10T22:13:30.953Z,8.77
2019-04-10T22:16:01.676Z,8.33
2019-04-10T22:18:31.648Z,8.50
2019-04-10T22:21:01.169Z,8.70
2019-04-10T22:23:30.661Z,9.23
2019-04-10T22:26:00.181Z,8.70
2019-04-10T22:28:30.724Z,9.60
2019-04-10T22:31:00.294Z,8.07
2019-04-10T22:33:30.030Z,8.57
2019-04-10T22:36:00.212Z,8.73
2019-04-10T22:38:29.831Z,10.17
2019-04-10T22:40:59.336Z,9.80
2019-04-10T22:43:30.033Z,9.27
2019-04-10T22:46:00.463Z,8.53
2019-04-10T22:48:30.685Z,9.00
2019-04-10T22:51:01.135Z,9.13
2019-04-10T22:53:31.073Z,9.50
2019-04-10T22:56:00.630Z,9.40
2019-04-10T22:58:30.143Z,9.83
2019-04-10T23:00:59.630Z,9.47
2019-04-10T23:03:29.969Z,9.90
2019-04-10T23:06:00.677Z,9.67
2019-04-10T23:08:30.322Z,9.47
2019-04-10T23:10:59.840Z,9.53
2019-04-10T23:13:30.075Z,10.57
2019-04-10T23:15:59.933Z,8.87
2019-04-10T23:18:29.779Z,8.50
2019-04-10T23:21:00.513Z,10.57
2019-04-10T23:23:30.787Z,10.13
2019-04-10T23:26:00.631Z,9.20
2019-04-10T23:28:31.547Z,8.50
2019-04-10T23:31:01.413Z,10.30
2019-04-10T23:33:30.918Z,9.30
2019-04-10T23:36:00.410Z,10.90
2019-04-10T23:38:31.152Z,9.67
2019-04-10T23:41:01.190Z,10.80
2019-04-10T23:43:31.472Z,8.13
2019-04-10T23:46:02.062Z,10.87
2019-04-10T23:48:31.636Z,9.83
2019-04-10T23:51:02.765Z,10.50
2019-04-10T23:53:32.858Z,9.93
2019-04-10T23:56:02.670Z,9.63
2019-04-10T23:58:32.181Z,9.87
